sensor_id;sensor_type;location;lat;lon;timestamp;P1;durP1;ratioP1;P2;durP2;ratioP2
61435;SDS011;47304;47.456;19.160;2023-11-19T00:01:56;13.80;;;5.70;;
61435;SDS011;47304;47.456;19.160;2023-11-19T00:04:25;13.30;;;5.60;;
61435;SDS011;47304;47.456;19.160;2023-11-19T00:06:53;11.20;;;5.20;;
61435;SDS011;47304;47.456;19.160;2023-11-19T00:09:21;10.90;;;4.70;;
61435;SDS011;47304;47.456;19.160;2023-11-19T00:11:50;13.00;;;5.40;;
61435;SDS011;47304;47.456;19.160;2023-11-19T00:14:18;10.80;;;5.00;;
61435;SDS011;47304;47.456;19.160;2023-11-19T00:16:46;12.20;;;4.80;;
61435;SDS011;47304;47.456;19.160;2023-11-19T00:19:15;10.60;;;4.70;;
61435;SDS011;47304;47.456;19.160;2023-11-19T00:21:43;15.30;;;5.90;;
61435;SDS011;47304;47.456;19.160;2023-11-19T00:24:12;10.30;;;5.10;;
61435;SDS011;47304;47.456;19.160;2023-11-19T00:26:40;12.20;;;5.20;;
61435;SDS011;47304;47.456;19.160;2023-11-19T00:29:09;13.00;;;5.50;;
61435;SDS011;47304;47.456;19.160;2023-11-19T00:31:38;12.50;;;5.90;;
61435;SDS011;47304;47.456;19.160;2023-11-19T00:34:06;12.10;;;5.60;;
61435;SDS011;47304;47.456;19.160;2023-11-19T00:36:35;12.70;;;6.00;;
61435;SDS011;47304;47.456;19.160;2023-11-19T00:39:03;13.50;;;6.90;;
61435;SDS011;47304;47.456;19.160;2023-11-19T00:41:31;13.40;;;6.40;;
61435;SDS011;47304;47.456;19.160;2023-11-19T00:44:00;15.80;;;5.90;;
61435;SDS011;47304;47.456;19.160;2023-11-19T00:46:28;14.60;;;6.50;;
61435;SDS011;47304;47.456;19.160;2023-11-19T00:48:57;12.00;;;6.30;;
61435;SDS011;47304;47.456;19.160;2023-11-19T00:51:25;13.80;;;6.50;;
61435;SDS011;47304;47.456;19.160;2023-11-19T00:53:54;12.40;;;5.60;;
61435;SDS011;47304;47.456;19.160;2023-11-19T00:56:22;13.80;;;6.00;;
61435;SDS011;47304;47.456;19.160;2023-11-19T00:58:50;13.00;;;5.70;;
61435;SDS011;47304;47.456;19.160;2023-11-19T01:01:19;11.30;;;5.80;;
61435;SDS011;47304;47.456;19.160;2023-11-19T01:03:47;12.50;;;5.80;;
61435;SDS011;47304;47.456;19.160;2023-11-19T01:06:16;13.10;;;6.50;;
61435;SDS011;47304;47.456;19.160;2023-11-19T01:08:54;14.00;;;6.70;;
61435;SDS011;47304;47.456;19.160;2023-11-19T01:11:23;13.00;;;6.40;;
61435;SDS011;47304;47.456;19.160;2023-11-19T01:13:52;14.60;;;6.60;;
61435;SDS011;47304;47.456;19.160;2023-11-19T01:16:20;14.60;;;6.80;;
61435;SDS011;47304;47.456;19.160;2023-11-19T01:18:49;12.80;;;6.10;;
61435;SDS011;47304;47.456;19.160;2023-11-19T01:21:17;13.70;;;6.70;;
61435;SDS011;47304;47.456;19.160;2023-11-19T01:23:46;13.10;;;6.80;;
61435;SDS011;47304;47.456;19.160;2023-11-19T01:26:14;14.10;;;6.70;;
61435;SDS011;47304;47.456;19.160;2023-11-19T01:28:43;11.70;;;5.70;;
61435;SDS011;47304;47.456;19.160;2023-11-19T01:31:11;13.50;;;6.60;;
61435;SDS011;47304;47.456;19.160;2023-11-19T01:33:41;14.20;;;6.70;;
61435;SDS011;47304;47.456;19.160;2023-11-19T01:36:12;13.40;;;6.10;;
61435;SDS011;47304;47.456;19.160;2023-11-19T01:38:41;12.60;;;6.40;;
61435;SDS011;47304;47.456;19.160;2023-11-19T01:41:09;12.70;;;6.40;;
61435;SDS011;47304;47.456;19.160;2023-11-19T01:43:38;13.30;;;6.50;;
61435;SDS011;47304;47.456;19.160;2023-11-19T01:46:06;13.20;;;6.40;;
61435;SDS011;47304;47.456;19.160;2023-11-19T01:48:36;13.20;;;6.40;;
61435;SDS011;47304;47.456;19.160;2023-11-19T01:51:07;12.30;;;5.90;;
61435;SDS011;47304;47.456;19.160;2023-11-19T01:53:36;12.90;;;6.70;;
61435;SDS011;47304;47.456;19.160;2023-11-19T01:56:07;12.60;;;6.30;;
61435;SDS011;47304;47.456;19.160;2023-11-19T01:58:36;14.10;;;6.60;;
61435;SDS011;47304;47.456;19.160;2023-11-19T02:01:06;13.40;;;6.00;;
61435;SDS011;47304;47.456;19.160;2023-11-19T02:03:35;14.10;;;6.60;;
61435;SDS011;47304;47.456;19.160;2023-11-19T02:06:04;14.80;;;7.20;;
61435;SDS011;47304;47.456;19.160;2023-11-19T02:08:34;13.20;;;6.30;;
61435;SDS011;47304;47.456;19.160;2023-11-19T02:11:02;15.00;;;6.90;;
61435;SDS011;47304;47.456;19.160;2023-11-19T02:13:31;13.00;;;6.60;;
61435;SDS011;47304;47.456;19.160;2023-11-19T02:16:00;14.90;;;6.30;;
61435;SDS011;47304;47.456;19.160;2023-11-19T02:18:29;13.60;;;6.40;;
61435;SDS011;47304;47.456;19.160;2023-11-19T02:20:58;13.00;;;6.10;;
61435;SDS011;47304;47.456;19.160;2023-11-19T02:23:27;13.30;;;6.80;;
61435;SDS011;47304;47.456;19.160;2023-11-19T02:26:09;14.00;;;6.40;;
61435;SDS011;47304;47.456;19.160;2023-11-19T02:28:43;11.00;;;5.30;;
61435;SDS011;47304;47.456;19.160;2023-11-19T02:31:12;13.60;;;6.40;;
61435;SDS011;47304;47.456;19.160;2023-11-19T02:33:40;13.00;;;6.80;;
61435;SDS011;47304;47.456;19.160;2023-11-19T02:36:09;13.30;;;6.90;;
61435;SDS011;47304;47.456;19.160;2023-11-19T02:38:38;13.60;;;6.40;;
61435;SDS011;47304;47.456;19.160;2023-11-19T02:41:07;14.20;;;6.50;;
61435;SDS011;47304;47.456;19.160;2023-11-19T02:43:36;12.90;;;6.50;;
61435;SDS011;47304;47.456;19.160;2023-11-19T02:46:05;12.60;;;6.60;;
61435;SDS011;47304;47.456;19.160;2023-11-19T02:48:34;14.80;;;6.80;;
61435;SDS011;47304;47.456;19.160;2023-11-19T02:51:03;15.10;;;6.60;;
61435;SDS011;47304;47.456;19.160;2023-11-19T02:53:32;14.10;;;6.70;;
61435;SDS011;47304;47.456;19.160;2023-11-19T02:56:00;15.90;;;7.00;;
61435;SDS011;47304;47.456;19.160;2023-11-19T02:58:29;13.80;;;6.50;;
61435;SDS011;47304;47.456;19.160;2023-11-19T03:00:57;12.00;;;6.10;;
61435;SDS011;47304;47.456;19.160;2023-11-19T03:03:26;17.60;;;7.30;;
61435;SDS011;47304;47.456;19.160;2023-11-19T03:05:54;13.60;;;6.40;;
61435;SDS011;47304;47.456;19.160;2023-11-19T03:08:22;14.10;;;7.40;;
61435;SDS011;47304;47.456;19.160;2023-11-19T03:10:51;14.70;;;6.30;;
61435;SDS011;47304;47.456;19.160;2023-11-19T03:13:19;14.00;;;7.00;;
61435;SDS011;47304;47.456;19.160;2023-11-19T03:15:47;14.00;;;6.70;;
61435;SDS011;47304;47.456;19.160;2023-11-19T03:18:16;14.30;;;6.80;;
61435;SDS011;47304;47.456;19.160;2023-11-19T03:20:44;14.90;;;6.50;;
61435;SDS011;47304;47.456;19.160;2023-11-19T03:23:14;13.20;;;6.30;;
61435;SDS011;47304;47.456;19.160;2023-11-19T03:25:42;13.10;;;6.20;;
61435;SDS011;47304;47.456;19.160;2023-11-19T03:28:11;16.90;;;7.80;;
61435;SDS011;47304;47.456;19.160;2023-11-19T03:30:41;14.90;;;7.60;;
61435;SDS011;47304;47.456;19.160;2023-11-19T03:33:09;15.40;;;7.20;;
61435;SDS011;47304;47.456;19.160;2023-11-19T03:35:37;16.10;;;7.60;;
61435;SDS011;47304;47.456;19.160;2023-11-19T03:38:06;14.10;;;6.80;;
61435;SDS011;47304;47.456;19.160;2023-11-19T03:40:34;15.70;;;7.00;;
61435;SDS011;47304;47.456;19.160;2023-11-19T03:43:03;14.30;;;7.10;;
61435;SDS011;47304;47.456;19.160;2023-11-19T03:45:31;14.20;;;6.90;;
61435;SDS011;47304;47.456;19.160;2023-11-19T03:48:00;15.40;;;7.20;;
61435;SDS011;47304;47.456;19.160;2023-11-19T03:50:29;16.40;;;7.60;;
61435;SDS011;47304;47.456;19.160;2023-11-19T03:52:57;14.40;;;7.00;;
61435;SDS011;47304;47.456;19.160;2023-11-19T03:55:25;14.30;;;7.40;;
61435;SDS011;47304;47.456;19.160;2023-11-19T03:57:54;13.90;;;7.40;;
61435;SDS011;47304;47.456;19.160;2023-11-19T04:00:23;12.80;;;6.40;;
61435;SDS011;47304;47.456;19.160;2023-11-19T04:02:51;15.90;;;7.40;;
61435;SDS011;47304;47.456;19.160;2023-11-19T04:05:20;13.60;;;7.50;;
61435;SDS011;47304;47.456;19.160;2023-11-19T04:07:49;14.10;;;7.40;;
61435;SDS011;47304;47.456;19.160;2023-11-19T04:10:18;14.40;;;7.40;;
61435;SDS011;47304;47.456;19.160;2023-11-19T04:12:46;14.00;;;7.40;;
61435;SDS011;47304;47.456;19.160;2023-11-19T04:15:15;14.90;;;7.20;;
61435;SDS011;47304;47.456;19.160;2023-11-19T04:17:43;14.70;;;7.20;;
61435;SDS011;47304;47.456;19.160;2023-11-19T04:20:12;17.00;;;7.90;;
61435;SDS011;47304;47.456;19.160;2023-11-19T04:22:40;14.30;;;7.80;;
61435;SDS011;47304;47.456;19.160;2023-11-19T04:25:09;15.00;;;6.90;;
61435;SDS011;47304;47.456;19.160;2023-11-19T04:27:37;15.20;;;7.50;;
61435;SDS011;47304;47.456;19.160;2023-11-19T04:30:07;16.70;;;8.60;;
61435;SDS011;47304;47.456;19.160;2023-11-19T04:32:36;13.60;;;7.20;;
61435;SDS011;47304;47.456;19.160;2023-11-19T04:35:05;14.50;;;7.70;;
61435;SDS011;47304;47.456;19.160;2023-11-19T04:37:34;16.80;;;8.00;;
61435;SDS011;47304;47.456;19.160;2023-11-19T04:40:03;13.80;;;7.00;;
61435;SDS011;47304;47.456;19.160;2023-11-19T04:42:32;16.70;;;8.30;;
61435;SDS011;47304;47.456;19.160;2023-11-19T04:45:01;19.20;;;8.60;;
61435;SDS011;47304;47.456;19.160;2023-11-19T04:47:29;15.50;;;7.80;;
61435;SDS011;47304;47.456;19.160;2023-11-19T04:49:58;16.50;;;8.20;;
61435;SDS011;47304;47.456;19.160;2023-11-19T04:52:26;17.70;;;8.80;;
61435;SDS011;47304;47.456;19.160;2023-11-19T04:54:55;19.30;;;8.40;;
61435;SDS011;47304;47.456;19.160;2023-11-19T04:57:23;14.50;;;8.10;;
61435;SDS011;47304;47.456;19.160;2023-11-19T04:59:51;18.10;;;8.20;;
61435;SDS011;47304;47.456;19.160;2023-11-19T05:02:20;16.40;;;7.10;;
61435;SDS011;47304;47.456;19.160;2023-11-19T05:04:49;16.80;;;8.30;;
61435;SDS011;47304;47.456;19.160;2023-11-19T05:07:17;17.30;;;8.40;;
61435;SDS011;47304;47.456;19.160;2023-11-19T05:09:46;15.20;;;7.80;;
61435;SDS011;47304;47.456;19.160;2023-11-19T05:12:14;17.30;;;9.00;;
61435;SDS011;47304;47.456;19.160;2023-11-19T05:14:42;16.20;;;9.00;;
61435;SDS011;47304;47.456;19.160;2023-11-19T05:17:11;16.40;;;7.90;;
61435;SDS011;47304;47.456;19.160;2023-11-19T05:19:40;15.90;;;8.60;;
61435;SDS011;47304;47.456;19.160;2023-11-19T05:22:08;17.10;;;8.10;;
61435;SDS011;47304;47.456;19.160;2023-11-19T05:24:37;15.20;;;7.80;;
61435;SDS011;47304;47.456;19.160;2023-11-19T05:27:05;17.60;;;9.00;;
61435;SDS011;47304;47.456;19.160;2023-11-19T05:29:34;14.00;;;6.50;;
61435;SDS011;47304;47.456;19.160;2023-11-19T05:32:03;14.60;;;7.30;;
61435;SDS011;47304;47.456;19.160;2023-11-19T05:34:31;13.80;;;7.30;;
61435;SDS011;47304;47.456;19.160;2023-11-19T05:37:00;19.30;;;8.50;;
61435;SDS011;47304;47.456;19.160;2023-11-19T05:39:28;18.30;;;8.60;;
61435;SDS011;47304;47.456;19.160;2023-11-19T05:41:57;16.60;;;8.50;;
61435;SDS011;47304;47.456;19.160;2023-11-19T05:44:26;17.10;;;8.20;;
61435;SDS011;47304;47.456;19.160;2023-11-19T05:46:54;14.90;;;7.40;;
61435;SDS011;47304;47.456;19.160;2023-11-19T05:49:23;17.40;;;8.60;;
61435;SDS011;47304;47.456;19.160;2023-11-19T05:51:52;16.20;;;7.60;;
61435;SDS011;47304;47.456;19.160;2023-11-19T05:54:20;15.30;;;7.40;;
61435;SDS011;47304;47.456;19.160;2023-11-19T05:56:49;16.40;;;8.00;;
61435;SDS011;47304;47.456;19.160;2023-11-19T05:59:17;17.90;;;9.20;;
61435;SDS011;47304;47.456;19.160;2023-11-19T06:01:46;16.90;;;8.50;;
61435;SDS011;47304;47.456;19.160;2023-11-19T06:04:14;15.90;;;7.70;;
61435;SDS011;47304;47.456;19.160;2023-11-19T06:06:43;18.10;;;8.50;;
61435;SDS011;47304;47.456;19.160;2023-11-19T06:09:11;16.00;;;8.30;;
61435;SDS011;47304;47.456;19.160;2023-11-19T06:11:40;13.70;;;7.20;;
61435;SDS011;47304;47.456;19.160;2023-11-19T06:14:09;15.50;;;8.40;;
61435;SDS011;47304;47.456;19.160;2023-11-19T06:16:37;18.50;;;8.70;;
61435;SDS011;47304;47.456;19.160;2023-11-19T06:19:05;14.10;;;7.90;;
61435;SDS011;47304;47.456;19.160;2023-11-19T06:21:34;15.60;;;7.90;;
61435;SDS011;47304;47.456;19.160;2023-11-19T06:24:03;17.90;;;9.00;;
61435;SDS011;47304;47.456;19.160;2023-11-19T06:26:32;16.70;;;8.70;;
61435;SDS011;47304;47.456;19.160;2023-11-19T06:29:00;17.70;;;9.40;;
61435;SDS011;47304;47.456;19.160;2023-11-19T06:31:29;16.90;;;8.50;;
61435;SDS011;47304;47.456;19.160;2023-11-19T06:33:58;20.90;;;9.30;;
61435;SDS011;47304;47.456;19.160;2023-11-19T06:36:27;17.50;;;8.70;;
61435;SDS011;47304;47.456;19.160;2023-11-19T06:38:55;18.40;;;8.80;;
61435;SDS011;47304;47.456;19.160;2023-11-19T06:41:24;20.00;;;8.90;;
61435;SDS011;47304;47.456;19.160;2023-11-19T06:43:53;18.20;;;9.80;;
61435;SDS011;47304;47.456;19.160;2023-11-19T06:46:22;17.90;;;9.10;;
61435;SDS011;47304;47.456;19.160;2023-11-19T06:48:50;18.40;;;9.90;;
61435;SDS011;47304;47.456;19.160;2023-11-19T06:51:18;19.70;;;10.40;;
61435;SDS011;47304;47.456;19.160;2023-11-19T06:53:47;18.30;;;9.40;;
61435;SDS011;47304;47.456;19.160;2023-11-19T06:56:19;17.50;;;9.70;;
61435;SDS011;47304;47.456;19.160;2023-11-19T06:58:48;16.00;;;8.90;;
61435;SDS011;47304;47.456;19.160;2023-11-19T07:01:17;16.00;;;8.50;;
61435;SDS011;47304;47.456;19.160;2023-11-19T07:03:46;16.60;;;8.10;;
61435;SDS011;47304;47.456;19.160;2023-11-19T07:06:15;16.00;;;8.20;;
61435;SDS011;47304;47.456;19.160;2023-11-19T07:08:43;17.30;;;9.50;;
61435;SDS011;47304;47.456;19.160;2023-11-19T07:11:12;15.40;;;8.20;;
61435;SDS011;47304;47.456;19.160;2023-11-19T07:13:41;14.10;;;7.80;;
61435;SDS011;47304;47.456;19.160;2023-11-19T07:16:09;14.00;;;7.80;;
61435;SDS011;47304;47.456;19.160;2023-11-19T07:18:37;14.70;;;7.10;;
61435;SDS011;47304;47.456;19.160;2023-11-19T07:21:06;18.70;;;8.80;;
61435;SDS011;47304;47.456;19.160;2023-11-19T07:23:35;17.00;;;9.30;;
61435;SDS011;47304;47.456;19.160;2023-11-19T07:26:05;14.90;;;7.80;;
61435;SDS011;47304;47.456;19.160;2023-11-19T07:28:34;18.80;;;8.80;;
61435;SDS011;47304;47.456;19.160;2023-11-19T07:31:03;15.20;;;7.50;;
61435;SDS011;47304;47.456;19.160;2023-11-19T07:33:32;15.70;;;7.80;;
61435;SDS011;47304;47.456;19.160;2023-11-19T07:36:00;19.40;;;8.90;;
61435;SDS011;47304;47.456;19.160;2023-11-19T07:38:29;14.70;;;8.00;;
61435;SDS011;47304;47.456;19.160;2023-11-19T07:40:57;17.30;;;8.70;;
61435;SDS011;47304;47.456;19.160;2023-11-19T07:43:26;17.30;;;8.60;;
61435;SDS011;47304;47.456;19.160;2023-11-19T07:45:54;17.10;;;8.70;;
61435;SDS011;47304;47.456;19.160;2023-11-19T07:48:23;18.10;;;10.00;;
61435;SDS011;47304;47.456;19.160;2023-11-19T07:50:51;19.50;;;9.30;;
61435;SDS011;47304;47.456;19.160;2023-11-19T07:53:20;17.70;;;9.10;;
61435;SDS011;47304;47.456;19.160;2023-11-19T07:55:48;18.00;;;8.60;;
61435;SDS011;47304;47.456;19.160;2023-11-19T07:58:17;16.70;;;8.40;;
61435;SDS011;47304;47.456;19.160;2023-11-19T08:00:45;22.40;;;11.00;;
61435;SDS011;47304;47.456;19.160;2023-11-19T08:03:14;22.10;;;10.50;;
61435;SDS011;47304;47.456;19.160;2023-11-19T08:05:42;19.20;;;9.70;;
61435;SDS011;47304;47.456;19.160;2023-11-19T08:08:11;16.90;;;8.60;;
61435;SDS011;47304;47.456;19.160;2023-11-19T08:10:39;17.00;;;8.50;;
61435;SDS011;47304;47.456;19.160;2023-11-19T08:13:08;18.40;;;9.40;;
61435;SDS011;47304;47.456;19.160;2023-11-19T08:15:36;16.50;;;8.20;;
61435;SDS011;47304;47.456;19.160;2023-11-19T08:18:04;15.90;;;8.20;;
61435;SDS011;47304;47.456;19.160;2023-11-19T08:20:33;15.40;;;8.50;;
61435;SDS011;47304;47.456;19.160;2023-11-19T08:23:02;15.00;;;8.00;;
61435;SDS011;47304;47.456;19.160;2023-11-19T08:25:30;14.20;;;7.40;;
61435;SDS011;47304;47.456;19.160;2023-11-19T08:27:59;15.80;;;7.90;;
61435;SDS011;47304;47.456;19.160;2023-11-19T08:30:27;14.70;;;7.20;;
61435;SDS011;47304;47.456;19.160;2023-11-19T08:32:55;18.20;;;8.70;;
61435;SDS011;47304;47.456;19.160;2023-11-19T08:35:24;15.30;;;8.20;;
61435;SDS011;47304;47.456;19.160;2023-11-19T08:37:52;17.40;;;8.60;;
61435;SDS011;47304;47.456;19.160;2023-11-19T08:40:21;17.30;;;8.70;;
61435;SDS011;47304;47.456;19.160;2023-11-19T08:42:49;16.60;;;9.60;;
61435;SDS011;47304;47.456;19.160;2023-11-19T08:45:18;18.20;;;10.10;;
61435;SDS011;47304;47.456;19.160;2023-11-19T08:47:47;17.60;;;8.60;;
61435;SDS011;47304;47.456;19.160;2023-11-19T08:50:15;17.10;;;9.00;;
61435;SDS011;47304;47.456;19.160;2023-11-19T08:52:43;17.30;;;9.80;;
61435;SDS011;47304;47.456;19.160;2023-11-19T08:55:12;16.60;;;10.00;;
61435;SDS011;47304;47.456;19.160;2023-11-19T08:57:41;17.40;;;9.90;;
61435;SDS011;47304;47.456;19.160;2023-11-19T09:00:09;18.00;;;10.20;;
61435;SDS011;47304;47.456;19.160;2023-11-19T09:02:38;19.10;;;8.80;;
61435;SDS011;47304;47.456;19.160;2023-11-19T09:05:07;16.30;;;8.40;;
61435;SDS011;47304;47.456;19.160;2023-11-19T09:07:36;18.10;;;9.40;;
61435;SDS011;47304;47.456;19.160;2023-11-19T09:10:05;15.50;;;8.40;;
61435;SDS011;47304;47.456;19.160;2023-11-19T09:12:35;14.00;;;7.80;;
61435;SDS011;47304;47.456;19.160;2023-11-19T09:15:03;14.90;;;8.20;;
61435;SDS011;47304;47.456;19.160;2023-11-19T09:17:32;13.40;;;7.30;;
61435;SDS011;47304;47.456;19.160;2023-11-19T09:20:01;13.60;;;7.40;;
61435;SDS011;47304;47.456;19.160;2023-11-19T09:22:29;17.10;;;8.10;;
61435;SDS011;47304;47.456;19.160;2023-11-19T09:24:58;14.00;;;7.50;;
61435;SDS011;47304;47.456;19.160;2023-11-19T09:27:26;12.40;;;7.00;;
61435;SDS011;47304;47.456;19.160;2023-11-19T09:29:55;14.60;;;7.70;;
61435;SDS011;47304;47.456;19.160;2023-11-19T09:32:24;13.60;;;7.60;;
61435;SDS011;47304;47.456;19.160;2023-11-19T09:34:52;18.90;;;8.60;;
61435;SDS011;47304;47.456;19.160;2023-11-19T09:37:21;19.60;;;10.30;;
61435;SDS011;47304;47.456;19.160;2023-11-19T09:39:50;20.20;;;10.30;;
61435;SDS011;47304;47.456;19.160;2023-11-19T09:42:18;19.70;;;11.10;;
61435;SDS011;47304;47.456;19.160;2023-11-19T09:44:47;15.60;;;9.20;;
61435;SDS011;47304;47.456;19.160;2023-11-19T09:47:16;14.20;;;8.60;;
61435;SDS011;47304;47.456;19.160;2023-11-19T09:49:45;14.90;;;8.00;;
61435;SDS011;47304;47.456;19.160;2023-11-19T09:52:14;15.20;;;7.60;;
61435;SDS011;47304;47.456;19.160;2023-11-19T09:54:43;14.70;;;8.80;;
61435;SDS011;47304;47.456;19.160;2023-11-19T09:57:11;13.90;;;7.70;;
61435;SDS011;47304;47.456;19.160;2023-11-19T09:59:43;13.40;;;6.80;;
61435;SDS011;47304;47.456;19.160;2023-11-19T10:02:13;17.00;;;8.20;;
61435;SDS011;47304;47.456;19.160;2023-11-19T10:04:43;15.80;;;8.80;;
61435;SDS011;47304;47.456;19.160;2023-11-19T10:07:13;15.70;;;8.50;;
61435;SDS011;47304;47.456;19.160;2023-11-19T10:09:41;16.20;;;8.70;;
61435;SDS011;47304;47.456;19.160;2023-11-19T10:12:09;21.80;;;8.70;;
61435;SDS011;47304;47.456;19.160;2023-11-19T10:14:38;16.90;;;8.70;;
61435;SDS011;47304;47.456;19.160;2023-11-19T10:17:08;16.20;;;8.60;;
61435;SDS011;47304;47.456;19.160;2023-11-19T10:19:36;15.20;;;8.70;;
61435;SDS011;47304;47.456;19.160;2023-11-19T10:22:07;17.60;;;8.60;;
61435;SDS011;47304;47.456;19.160;2023-11-19T10:24:37;16.20;;;8.90;;
61435;SDS011;47304;47.456;19.160;2023-11-19T10:27:06;15.10;;;7.90;;
61435;SDS011;47304;47.456;19.160;2023-11-19T10:29:35;14.90;;;7.80;;
61435;SDS011;47304;47.456;19.160;2023-11-19T10:32:04;16.40;;;8.10;;
61435;SDS011;47304;47.456;19.160;2023-11-19T10:34:33;14.40;;;8.00;;
61435;SDS011;47304;47.456;19.160;2023-11-19T10:37:01;14.20;;;7.80;;
61435;SDS011;47304;47.456;19.160;2023-11-19T10:39:37;14.80;;;7.40;;
61435;SDS011;47304;47.456;19.160;2023-11-19T10:42:20;12.40;;;6.30;;
61435;SDS011;47304;47.456;19.160;2023-11-19T10:44:49;13.60;;;7.70;;
61435;SDS011;47304;47.456;19.160;2023-11-19T10:47:18;14.30;;;7.30;;
61435;SDS011;47304;47.456;19.160;2023-11-19T10:49:49;13.30;;;7.40;;
61435;SDS011;47304;47.456;19.160;2023-11-19T10:52:18;17.20;;;7.80;;
61435;SDS011;47304;47.456;19.160;2023-11-19T10:54:49;14.80;;;7.70;;
61435;SDS011;47304;47.456;19.160;2023-11-19T10:57:19;14.30;;;8.50;;
61435;SDS011;47304;47.456;19.160;2023-11-19T10:59:48;14.10;;;7.60;;
61435;SDS011;47304;47.456;19.160;2023-11-19T11:02:19;13.50;;;7.60;;
61435;SDS011;47304;47.456;19.160;2023-11-19T11:04:51;15.90;;;8.40;;
61435;SDS011;47304;47.456;19.160;2023-11-19T11:07:21;14.50;;;7.70;;
61435;SDS011;47304;47.456;19.160;2023-11-19T11:09:50;16.20;;;9.10;;
61435;SDS011;47304;47.456;19.160;2023-11-19T11:12:21;15.40;;;8.50;;
61435;SDS011;47304;47.456;19.160;2023-11-19T11:14:51;16.20;;;9.60;;
61435;SDS011;47304;47.456;19.160;2023-11-19T11:17:21;17.70;;;9.20;;
61435;SDS011;47304;47.456;19.160;2023-11-19T11:19:54;19.70;;;10.90;;
61435;SDS011;47304;47.456;19.160;2023-11-19T11:22:23;19.30;;;10.70;;
61435;SDS011;47304;47.456;19.160;2023-11-19T11:24:59;17.90;;;10.40;;
61435;SDS011;47304;47.456;19.160;2023-11-19T11:27:42;18.10;;;9.70;;
61435;SDS011;47304;47.456;19.160;2023-11-19T11:30:46;19.90;;;10.80;;
61435;SDS011;47304;47.456;19.160;2023-11-19T11:33:34;17.70;;;8.50;;
61435;SDS011;47304;47.456;19.160;2023-11-19T11:36:23;17.10;;;9.50;;
61435;SDS011;47304;47.456;19.160;2023-11-19T11:38:53;14.70;;;8.00;;
61435;SDS011;47304;47.456;19.160;2023-11-19T11:41:24;16.90;;;9.10;;
61435;SDS011;47304;47.456;19.160;2023-11-19T11:43:53;17.00;;;9.40;;
61435;SDS011;47304;47.456;19.160;2023-11-19T11:49:26;16.50;;;8.60;;
61435;SDS011;47304;47.456;19.160;2023-11-19T11:52:04;18.00;;;9.40;;
61435;SDS011;47304;47.456;19.160;2023-11-19T11:54:35;19.50;;;9.20;;
61435;SDS011;47304;47.456;19.160;2023-11-19T11:57:11;17.80;;;9.50;;
61435;SDS011;47304;47.456;19.160;2023-11-19T11:59:47;18.80;;;9.10;;
61435;SDS011;47304;47.456;19.160;2023-11-19T12:02:18;16.90;;;8.60;;
61435;SDS011;47304;47.456;19.160;2023-11-19T12:04:48;16.60;;;8.70;;
61435;SDS011;47304;47.456;19.160;2023-11-19T12:07:18;17.40;;;8.90;;
61435;SDS011;47304;47.456;19.160;2023-11-19T12:09:48;16.40;;;9.10;;
61435;SDS011;47304;47.456;19.160;2023-11-19T12:12:27;16.70;;;9.30;;
61435;SDS011;47304;47.456;19.160;2023-11-19T12:15:03;15.10;;;8.40;;
61435;SDS011;47304;47.456;19.160;2023-11-19T12:17:37;16.20;;;8.60;;
61435;SDS011;47304;47.456;19.160;2023-11-19T12:20:09;18.20;;;8.50;;
61435;SDS011;47304;47.456;19.160;2023-11-19T12:22:38;15.80;;;9.20;;
61435;SDS011;47304;47.456;19.160;2023-11-19T12:25:08;19.50;;;9.20;;
61435;SDS011;47304;47.456;19.160;2023-11-19T12:27:37;14.80;;;8.20;;
61435;SDS011;47304;47.456;19.160;2023-11-19T12:30:08;16.50;;;8.70;;
61435;SDS011;47304;47.456;19.160;2023-11-19T12:32:40;15.00;;;8.20;;
61435;SDS011;47304;47.456;19.160;2023-11-19T12:35:10;16.60;;;8.80;;
61435;SDS011;47304;47.456;19.160;2023-11-19T12:37:48;15.90;;;8.50;;
61435;SDS011;47304;47.456;19.160;2023-11-19T12:40:17;16.50;;;8.70;;
61435;SDS011;47304;47.456;19.160;2023-11-19T12:42:46;14.20;;;7.70;;
61435;SDS011;47304;47.456;19.160;2023-11-19T12:45:15;15.80;;;7.90;;
61435;SDS011;47304;47.456;19.160;2023-11-19T12:47:44;13.60;;;7.30;;
61435;SDS011;47304;47.456;19.160;2023-11-19T12:50:12;16.30;;;8.10;;
61435;SDS011;47304;47.456;19.160;2023-11-19T12:52:42;15.30;;;8.00;;
61435;SDS011;47304;47.456;19.160;2023-11-19T12:55:28;13.10;;;7.30;;
61435;SDS011;47304;47.456;19.160;2023-11-19T12:57:57;16.10;;;7.60;;
61435;SDS011;47304;47.456;19.160;2023-11-19T13:00:25;15.10;;;7.80;;
61435;SDS011;47304;47.456;19.160;2023-11-19T13:02:55;14.90;;;7.70;;
61435;SDS011;47304;47.456;19.160;2023-11-19T13:05:28;15.80;;;8.20;;
61435;SDS011;47304;47.456;19.160;2023-11-19T13:08:04;15.20;;;7.90;;
61435;SDS011;47304;47.456;19.160;2023-11-19T13:10:33;14.90;;;7.70;;
61435;SDS011;47304;47.456;19.160;2023-11-19T13:13:17;17.40;;;8.20;;
61435;SDS011;47304;47.456;19.160;2023-11-19T13:15:45;15.70;;;8.40;;
61435;SDS011;47304;47.456;19.160;2023-11-19T13:18:15;14.40;;;7.90;;
61435;SDS011;47304;47.456;19.160;2023-11-19T13:20:44;15.30;;;8.00;;
61435;SDS011;47304;47.456;19.160;2023-11-19T13:23:12;13.90;;;7.70;;
61435;SDS011;47304;47.456;19.160;2023-11-19T13:25:41;14.00;;;7.50;;
61435;SDS011;47304;47.456;19.160;2023-11-19T13:28:10;14.70;;;7.60;;
61435;SDS011;47304;47.456;19.160;2023-11-19T13:30:38;13.80;;;8.20;;
61435;SDS011;47304;47.456;19.160;2023-11-19T13:33:07;16.30;;;7.50;;
61435;SDS011;47304;47.456;19.160;2023-11-19T13:35:35;14.40;;;7.50;;
61435;SDS011;47304;47.456;19.160;2023-11-19T13:38:04;19.60;;;9.10;;
61435;SDS011;47304;47.456;19.160;2023-11-19T13:40:32;16.80;;;8.80;;
61435;SDS011;47304;47.456;19.160;2023-11-19T13:43:01;14.80;;;6.70;;
61435;SDS011;47304;47.456;19.160;2023-11-19T13:45:29;14.50;;;7.10;;
61435;SDS011;47304;47.456;19.160;2023-11-19T13:47:58;12.40;;;6.20;;
61435;SDS011;47304;47.456;19.160;2023-11-19T13:50:26;11.40;;;5.90;;
61435;SDS011;47304;47.456;19.160;2023-11-19T13:52:54;11.40;;;5.80;;
61435;SDS011;47304;47.456;19.160;2023-11-19T13:55:23;11.20;;;5.30;;
61435;SDS011;47304;47.456;19.160;2023-11-19T13:57:51;12.30;;;5.70;;
61435;SDS011;47304;47.456;19.160;2023-11-19T14:00:20;11.50;;;5.90;;
61435;SDS011;47304;47.456;19.160;2023-11-19T14:02:48;10.50;;;5.50;;
61435;SDS011;47304;47.456;19.160;2023-11-19T14:05:17;12.20;;;6.70;;
61435;SDS011;47304;47.456;19.160;2023-11-19T14:07:46;11.10;;;6.30;;
61435;SDS011;47304;47.456;19.160;2023-11-19T14:10:14;11.60;;;6.00;;
61435;SDS011;47304;47.456;19.160;2023-11-19T14:12:43;10.90;;;5.80;;
61435;SDS011;47304;47.456;19.160;2023-11-19T14:15:11;12.80;;;5.60;;
61435;SDS011;47304;47.456;19.160;2023-11-19T14:17:40;11.10;;;5.40;;
61435;SDS011;47304;47.456;19.160;2023-11-19T14:20:09;12.90;;;6.70;;
61435;SDS011;47304;47.456;19.160;2023-11-19T14:22:38;10.00;;;5.40;;
61435;SDS011;47304;47.456;19.160;2023-11-19T14:25:07;11.10;;;5.50;;
61435;SDS011;47304;47.456;19.160;2023-11-19T14:27:36;11.90;;;6.40;;
61435;SDS011;47304;47.456;19.160;2023-11-19T14:30:06;14.10;;;6.50;;
61435;SDS011;47304;47.456;19.160;2023-11-19T14:32:36;12.70;;;6.30;;
61435;SDS011;47304;47.456;19.160;2023-11-19T14:35:07;11.90;;;5.70;;
61435;SDS011;47304;47.456;19.160;2023-11-19T14:37:36;11.50;;;5.60;;